Time;durP1;ratioP1;P1;durP2;ratioP2;P2;SDS_P1;SDS_P2;PMS_P1;PMS_P2;Temp;Humidity;BMP_temperature;BMP_pressure;BME280_temperature;BME280_humidity;BME280_pressure;Samples;Min_cycle;Max_cycle;Signal;HPM_P1;HPM_P2
2021/12/03 00:00:56;;;;;;;5.33;3.20;;;;;;;-143.84;77.62;45121.44;5090835;28;20444;-69
2021/12/03 00:03:24;;;;;;;2.80;2.60;;;;;;;-143.84;77.31;45125.22;5090922;28;20884;-70
2021/12/03 00:05:53;;;;;;;5.70;2.90;;;;;;;-143.84;77.03;45121.44;5090759;28;20443;-70
2021/12/03 00:08:20;;;;;;;3.83;2.60;;;;;;;-143.84;76.76;45140.47;5090629;28;20490;-69
2021/12/03 00:10:53;;;;;;;4.03;3.07;;;;;;;-143.84;76.74;45117.63;5090952;28;20507;-69
2021/12/03 00:13:21;;;;;;;2.67;2.57;;;;;;;-143.84;77.06;45127.13;5090535;28;20434;-69
2021/12/03 00:15:51;;;;;;;5.70;2.60;;;;;;;-143.84;76.58;45146.19;5090531;28;20443;-69
2021/12/03 00:18:18;;;;;;;3.53;2.80;;;;;;;-143.84;76.38;45117.63;5090514;28;20504;-69
2021/12/03 00:20:45;;;;;;;7.33;2.67;;;;;;;-143.84;76.32;45134.75;5091026;28;20540;-68
2021/12/03 00:23:13;;;;;;;2.70;2.50;;;;;;;-143.84;76.03;45140.47;5077620;28;20512;-70
2021/12/03 00:25:40;;;;;;;4.70;2.90;;;;;;;-143.84;76.12;45144.28;5071733;28;20991;-70
2021/12/03 00:28:08;;;;;;;2.53;2.33;;;;;;;-143.84;76.03;45136.66;5070031;28;20559;-70
2021/12/03 00:30:37;;;;;;;3.37;3.07;;;;;;;-143.84;75.98;45140.47;5069889;28;20453;-70
2021/12/03 00:33:07;;;;;;;5.07;3.93;;;;;;;-143.84;76.05;45151.91;5069288;28;20479;-70
2021/12/03 00:35:35;;;;;;;9.13;3.83;;;;;;;-143.84;76.12;45132.84;5084655;28;20478;-70
2021/12/03 00:38:03;;;;;;;4.03;3.40;;;;;;;-143.84;76.21;45150.00;5069801;28;20451;-70
2021/12/03 00:40:34;;;;;;;3.03;2.83;;;;;;;-143.84;76.25;45146.19;5069204;28;20503;-70
2021/12/03 00:43:02;;;;;;;3.77;2.50;;;;;;;-143.84;76.39;45130.94;5069459;28;21122;-70
2021/12/03 00:45:31;;;;;;;4.77;2.73;;;;;;;-143.84;76.57;45132.84;5069748;28;20432;-70
2021/12/03 00:47:59;;;;;;;3.00;2.63;;;;;;;-143.84;76.18;45127.13;5069717;28;20971;-70
2021/12/03 00:50:30;;;;;;;3.33;2.37;;;;;;;-143.84;76.17;45134.75;5069968;28;20440;-70
2021/12/03 00:52:57;;;;;;;3.80;3.30;;;;;;;-143.84;76.36;45129.03;5069561;28;20452;-70
2021/12/03 00:55:29;;;;;;;3.03;2.73;;;;;;;-143.84;75.95;45148.09;5069007;28;20443;-70
2021/12/03 00:57:56;;;;;;;3.90;2.90;;;;;;;-143.84;75.82;45130.94;5069458;28;20443;-70
2021/12/03 01:00:29;;;;;;;3.00;2.70;;;;;;;-143.84;75.95;45113.81;5069772;28;20867;-70
2021/12/03 01:02:58;;;;;;;3.93;2.30;;;;;;;-143.84;75.81;45132.84;5069081;28;20917;-70
2021/12/03 01:05:28;;;;;;;3.47;2.90;;;;;;;-143.84;75.74;45161.41;5069505;28;21210;-70
2021/12/03 01:07:55;;;;;;;2.80;2.60;;;;;;;-143.84;75.80;45110.00;5069401;28;20956;-70
2021/12/03 01:10:23;;;;;;;3.63;2.70;;;;;;;-143.84;75.94;45117.63;5069634;28;20471;-70
2021/12/03 01:12:51;;;;;;;3.00;2.70;;;;;;;-143.84;75.75;45140.47;5069253;28;21030;-69
2021/12/03 01:15:22;;;;;;;6.00;2.20;;;;;;;-143.84;75.95;45144.28;5069305;28;20443;-69
2021/12/03 01:17:49;;;;;;;3.07;2.87;;;;;;;-143.84;75.95;45150.00;5051611;28;20498;-69
2021/12/03 01:20:19;;;;;;;6.57;2.70;;;;;;;-143.84;76.17;45140.47;5069262;28;20451;-69
2021/12/03 01:22:50;;;;;;;2.83;2.60;;;;;;;-143.84;76.28;45125.22;5069219;28;20947;-69
2021/12/03 01:25:19;;;;;;;4.53;2.90;;;;;;;-143.84;76.13;45148.09;5069456;28;20521;-69
2021/12/03 01:27:47;;;;;;;4.57;2.43;;;;;;;-143.84;76.25;45134.75;5068923;28;20496;-69
2021/12/03 01:30:20;;;;;;;3.97;2.70;;;;;;;-143.84;76.42;45117.63;5069006;28;20948;-69
2021/12/03 01:32:48;;;;;;;3.10;2.83;;;;;;;-143.84;76.58;45121.44;5068954;28;20520;-69
2021/12/03 01:35:15;;;;;;;3.03;2.83;;;;;;;-143.84;76.70;45121.44;5069063;28;20440;-69
2021/12/03 01:37:43;;;;;;;3.00;2.80;;;;;;;-143.84;76.52;45150.00;5068949;28;20868;-69
2021/12/03 01:40:15;;;;;;;2.97;2.77;;;;;;;-143.84;76.71;45127.13;5068896;28;20455;-69
2021/12/03 01:42:44;;;;;;;4.40;3.03;;;;;;;-143.84;76.58;45134.75;5068715;28;20509;-69
2021/12/03 01:45:15;;;;;;;4.70;2.80;;;;;;;-143.84;76.57;45138.56;5068886;28;20460;-69
2021/12/03 01:47:42;;;;;;;3.57;3.20;;;;;;;-143.84;77.13;45121.44;5068808;28;20447;-69
2021/12/03 01:50:11;;;;;;;6.30;3.07;;;;;;;-143.84;76.73;45121.44;5068514;28;20479;-69
2021/12/03 01:52:39;;;;;;;3.50;2.93;;;;;;;-143.84;76.81;45113.81;5068742;28;20982;-69
2021/12/03 01:55:09;;;;;;;4.23;3.00;;;;;;;-143.84;76.63;45138.56;5069123;28;20517;-69
2021/12/03 01:57:38;;;;;;;3.73;3.23;;;;;;;-143.84;76.71;45117.63;5068744;28;20509;-69
2021/12/03 02:00:07;;;;;;;5.70;2.93;;;;;;;-143.84;76.58;45146.19;5068637;28;20452;-69
2021/12/03 02:02:34;;;;;;;3.50;3.13;;;;;;;-143.84;76.63;45127.13;5068314;28;20491;-69
2021/12/03 02:05:01;;;;;;;12.83;3.03;;;;;;;-143.84;76.65;45129.03;5068633;28;20509;-69
2021/12/03 02:07:29;;;;;;;3.57;3.37;;;;;;;-143.84;76.58;45129.03;5068540;28;20442;-69
2021/12/03 02:09:56;;;;;;;3.53;3.30;;;;;;;-143.84;76.57;45142.38;5072249;28;20831;-69
2021/12/03 02:12:23;;;;;;;3.70;3.20;;;;;;;-143.84;76.63;45130.94;5072934;28;20435;-69
2021/12/03 02:14:52;;;;;;;3.50;3.20;;;;;;;-143.84;76.62;45138.56;5072627;28;20888;-69
2021/12/03 02:17:19;;;;;;;3.63;2.80;;;;;;;-143.84;76.77;45123.34;5072587;28;20455;-69
2021/12/03 02:19:46;;;;;;;3.50;3.20;;;;;;;-143.84;76.67;45142.38;5072533;28;21018;-69
2021/12/03 02:22:15;;;;;;;3.13;2.83;;;;;;;-143.84;76.80;45136.66;5072704;28;21117;-69
2021/12/03 02:24:42;;;;;;;5.47;2.90;;;;;;;-143.84;77.03;45121.44;5072412;28;20444;-69
2021/12/03 02:27:09;;;;;;;3.77;3.47;;;;;;;-143.84;76.97;45136.66;5072654;28;20444;-70
2021/12/03 02:29:37;;;;;;;3.90;2.97;;;;;;;-143.84;76.88;45121.44;5072356;28;20888;-70
2021/12/03 02:32:05;;;;;;;3.50;3.20;;;;;;;-143.84;76.88;45123.34;5072363;28;20508;-69
2021/12/03 02:34:32;;;;;;;11.03;3.00;;;;;;;-143.84;76.59;45125.22;5087548;28;20497;-69
2021/12/03 02:36:59;;;;;;;3.70;3.40;;;;;;;-143.84;76.46;45119.53;5071714;28;20856;-70
2021/12/03 02:39:28;;;;;;;3.77;3.47;;;;;;;-143.84;76.57;45117.63;5071421;28;20500;-69
2021/12/03 02:41:55;;;;;;;5.97;3.20;;;;;;;-143.84;76.46;45130.94;5071959;28;20440;-69
2021/12/03 02:44:22;;;;;;;2.93;2.70;;;;;;;-143.84;75.79;45132.84;5071458;28;20455;-69
2021/12/03 02:46:49;;;;;;;2.87;2.67;;;;;;;-143.84;75.50;45111.91;5072310;28;20509;-69
2021/12/03 02:49:16;;;;;;;3.70;3.23;;;;;;;-143.84;75.33;45121.44;5072174;28;20498;-69
2021/12/03 02:51:44;;;;;;;4.90;3.57;;;;;;;-143.84;75.21;45098.56;5072147;28;20516;-69
2021/12/03 02:54:12;;;;;;;2.93;2.60;;;;;;;-143.84;74.96;45127.13;5072187;28;20447;-69
2021/12/03 02:56:41;;;;;;;3.10;2.80;;;;;;;-143.84;74.38;45110.00;5071797;28;20448;-69
2021/12/03 02:59:08;;;;;;;3.90;3.60;;;;;;;-143.84;74.33;45130.94;5072184;28;20993;-69
2021/12/03 03:01:35;;;;;;;3.73;3.43;;;;;;;-143.84;74.04;45117.63;5071849;28;20513;-69
2021/12/03 03:04:02;;;;;;;4.47;3.20;;;;;;;-143.84;73.88;45134.75;5071528;28;20537;-69
2021/12/03 03:06:30;;;;;;;3.60;3.30;;;;;;;-143.84;73.81;45121.44;5071615;28;20440;-70
2021/12/03 03:08:57;;;;;;;3.63;3.37;;;;;;;-143.84;73.89;45148.09;5053640;28;20490;-69
2021/12/03 03:11:24;;;;;;;3.43;3.13;;;;;;;-143.84;73.57;45138.56;5071704;28;20436;-68
2021/12/03 03:13:53;;;;;;;3.60;3.10;;;;;;;-143.84;73.50;45148.09;5071606;28;20455;-68
2021/12/03 03:16:21;;;;;;;3.50;3.20;;;;;;;-143.84;73.44;45129.03;5071675;28;20466;-68
2021/12/03 03:18:48;;;;;;;4.47;3.17;;;;;;;-143.84;73.46;45130.94;5070709;28;20502;-68
2021/12/03 03:21:15;;;;;;;3.70;3.40;;;;;;;-143.84;72.99;45115.72;5071662;28;20509;-68
2021/12/03 03:23:42;;;;;;;4.30;2.90;;;;;;;-143.84;73.04;45140.47;5071134;28;20498;-68
2021/12/03 03:26:10;;;;;;;3.17;2.97;;;;;;;-143.84;72.82;45134.75;5071123;28;20440;-68
2021/12/03 03:28:39;;;;;;;19.17;4.20;;;;;;;-143.84;72.87;45125.22;5071153;28;20449;-68
2021/12/03 03:31:08;;;;;;;3.23;3.00;;;;;;;-143.84;72.46;45111.91;5071123;28;20445;-68
2021/12/03 03:33:35;;;;;;;4.80;2.73;;;;;;;-143.84;72.20;45142.38;5071200;28;21160;-68
2021/12/03 03:36:03;;;;;;;3.20;3.00;;;;;;;-143.84;72.19;45121.44;5071059;28;20449;-68
2021/12/03 03:38:31;;;;;;;5.30;3.10;;;;;;;-143.84;72.08;45130.94;5071235;28;20855;-68
2021/12/03 03:40:58;;;;;;;3.10;2.70;;;;;;;-143.84;71.82;45104.28;5071234;28;20519;-68
2021/12/03 03:43:25;;;;;;;4.27;2.97;;;;;;;-143.84;71.68;45132.84;5070882;28;20448;-68
2021/12/03 03:45:52;;;;;;;3.37;3.10;;;;;;;-143.84;71.76;45129.03;5071088;28;20441;-68
2021/12/03 03:48:23;;;;;;;3.60;3.30;;;;;;;-143.84;72.12;45104.28;5070887;28;20448;-68
2021/12/03 03:50:51;;;;;;;5.40;3.40;;;;;;;-143.84;72.03;45155.69;5070776;28;20476;-68
2021/12/03 03:53:19;;;;;;;8.40;2.90;;;;;;;-143.84;72.19;45111.91;5070888;28;20444;-68
2021/12/03 03:55:46;;;;;;;11.63;3.17;;;;;;;-143.84;71.74;45125.22;5070932;28;20433;-68
2021/12/03 03:58:13;;;;;;;3.10;2.80;;;;;;;-143.84;72.20;45119.53;5070902;28;21380;-68
2021/12/03 04:00:43;;;;;;;3.20;3.00;;;;;;;-143.84;72.01;45102.38;5071023;28;20469;-68
2021/12/03 04:03:10;;;;;;;4.30;3.03;;;;;;;-143.84;72.06;45144.28;5070487;28;21029;-68
2021/12/03 04:05:39;;;;;;;3.63;3.33;;;;;;;-143.84;72.26;45117.63;5070684;28;20445;-68
2021/12/03 04:08:07;;;;;;;4.80;3.03;;;;;;;-143.84;72.28;45119.53;5070751;28;20449;-68
2021/12/03 04:10:34;;;;;;;3.43;3.13;;;;;;;-143.84;72.10;45104.28;5070642;28;20942;-68
2021/12/03 04:13:02;;;;;;;3.60;3.17;;;;;;;-143.84;71.98;45090.97;5070468;28;20441;-68
2021/12/03 04:15:29;;;;;;;3.80;3.50;;;;;;;-143.84;72.05;45117.63;5070192;28;20429;-68
2021/12/03 04:17:56;;;;;;;3.70;3.30;;;;;;;-143.84;72.18;45140.47;5070294;28;20526;-68
2021/12/03 04:20:23;;;;;;;3.93;3.37;;;;;;;-143.84;72.34;45121.44;5070202;28;20453;-68
2021/12/03 04:22:53;;;;;;;3.47;3.17;;;;;;;-143.84;72.51;45123.34;5070232;28;20472;-68
2021/12/03 04:25:22;;;;;;;13.63;4.17;;;;;;;-143.84;72.69;45111.91;5070063;28;20457;-68
2021/12/03 04:27:49;;;;;;;4.77;3.93;;;;;;;-143.84;73.08;45134.75;5070636;28;20442;-69
2021/12/03 04:30:21;;;;;;;3.10;2.90;;;;;;;-143.84;73.16;45127.13;5069117;28;20485;-70
2021/12/03 04:32:49;;;;;;;3.37;3.07;;;;;;;-143.84;73.39;45110.00;5070501;28;20444;-70
2021/12/03 04:35:16;;;;;;;2.90;2.70;;;;;;;-143.84;73.10;45130.94;5070228;28;20445;-70
2021/12/03 04:37:44;;;;;;;4.43;3.13;;;;;;;-143.84;73.55;45121.44;5070048;28;20939;-69
2021/12/03 04:40:15;;;;;;;5.20;3.20;;;;;;;-143.84;73.80;45110.00;5069756;28;20440;-69
2021/12/03 04:42:43;;;;;;;11.73;4.10;;;;;;;-143.84;73.72;45134.75;5069029;28;20506;-69
2021/12/03 04:45:12;;;;;;;4.80;3.90;;;;;;;-143.84;73.87;45089.06;5069506;28;20864;-69
2021/12/03 04:47:40;;;;;;;7.00;3.37;;;;;;;-143.84;73.63;45130.94;5069482;28;21015;-69
2021/12/03 04:50:10;;;;;;;5.93;3.47;;;;;;;-143.84;73.68;45125.22;5068619;28;20484;-69
2021/12/03 04:52:38;;;;;;;5.70;4.33;;;;;;;-143.84;73.85;45125.22;5069401;28;20506;-69
2021/12/03 04:55:06;;;;;;;4.00;3.70;;;;;;;-143.84;73.66;45108.09;5069488;28;20962;-69
2021/12/03 04:57:35;;;;;;;6.80;3.60;;;;;;;-143.84;73.70;45151.91;5069641;28;20436;-69
2021/12/03 05:00:04;;;;;;;3.77;3.47;;;;;;;-143.84;73.67;45129.03;5069681;28;20460;-70
2021/12/03 05:02:32;;;;;;;5.93;3.77;;;;;;;-143.84;73.54;45115.72;5069297;28;20544;-69
2021/12/03 05:05:02;;;;;;;5.37;3.27;;;;;;;-143.84;73.71;45106.19;5069534;28;20440;-69
2021/12/03 05:07:31;;;;;;;7.03;5.10;;;;;;;-143.84;73.77;45121.44;5069366;28;20449;-69
2021/12/03 05:09:59;;;;;;;4.13;3.83;;;;;;;-143.84;73.67;45123.34;5070084;28;20545;-70
2021/12/03 05:12:26;;;;;;;4.40;4.00;;;;;;;-143.84;73.89;45134.75;5069768;28;20448;-70
2021/12/03 05:14:55;;;;;;;4.13;3.83;;;;;;;-143.84;74.02;45144.28;5069544;28;20513;-69
2021/12/03 05:17:22;;;;;;;6.93;3.80;;;;;;;-143.84;74.12;45140.47;5069388;28;21131;-69
2021/12/03 05:19:50;;;;;;;6.07;3.40;;;;;;;-143.84;74.25;45096.66;5069131;28;20448;-69
2021/12/03 05:22:17;;;;;;;10.53;3.90;;;;;;;-143.84;74.27;45115.72;5068994;28;20464;-69
2021/12/03 05:24:46;;;;;;;7.93;4.20;;;;;;;-143.84;74.18;45111.91;5068907;28;20474;-69
2021/12/03 05:27:15;;;;;;;15.40;6.00;;;;;;;-143.84;74.41;45140.47;5062051;28;20460;-70
2021/12/03 05:29:43;;;;;;;8.60;3.73;;;;;;;-143.84;75.37;45110.00;5049024;28;21066;-73
2021/12/03 05:32:12;;;;;;;11.13;4.17;;;;;;;-143.84;74.90;45110.00;5051939;28;20957;-70
2021/12/03 05:34:40;;;;;;;5.60;3.40;;;;;;;-143.84;74.27;45117.63;5089141;28;20435;-72
2021/12/03 05:37:08;;;;;;;8.83;3.53;;;;;;;-143.84;74.26;45136.66;5089258;28;20832;-70
2021/12/03 05:39:37;;;;;;;8.60;2.90;;;;;;;-143.84;74.55;45121.44;5089312;28;20448;-69
2021/12/03 05:42:06;;;;;;;6.53;3.80;;;;;;;-143.84;74.70;45121.44;5088593;28;20494;-70
2021/12/03 05:44:33;;;;;;;8.03;4.50;;;;;;;-143.84;74.76;45138.56;5088973;28;20436;-70
2021/12/03 05:47:01;;;;;;;3.60;2.93;;;;;;;-143.84;74.78;45148.09;5089147;28;20435;-69
2021/12/03 05:49:29;;;;;;;7.67;3.90;;;;;;;-143.84;74.56;45125.22;5088594;28;20613;-69
2021/12/03 05:51:57;;;;;;;6.90;3.30;;;;;;;-143.84;74.81;45121.44;5089496;28;20513;-70
2021/12/03 05:54:24;;;;;;;6.83;3.70;;;;;;;-143.84;74.92;45117.63;5074305;28;20437;-69
2021/12/03 05:56:51;;;;;;;6.17;3.70;;;;;;;-143.84;74.79;45110.00;5067108;28;20522;-69
2021/12/03 05:59:19;;;;;;;4.10;3.10;;;;;;;-143.84;75.13;45113.81;5067597;28;20446;-70
2021/12/03 06:01:46;;;;;;;8.43;3.50;;;;;;;-143.84;75.35;45111.91;5070191;28;20460;-70
2021/12/03 06:04:13;;;;;;;7.90;3.93;;;;;;;-143.84;75.86;45113.81;5067603;28;20441;-70
2021/12/03 06:06:42;;;;;;;6.93;3.23;;;;;;;-143.84;76.15;45096.66;5068301;28;20917;-69
2021/12/03 06:09:09;;;;;;;6.17;3.30;;;;;;;-143.84;76.46;45098.56;5070624;28;20456;-70
2021/12/03 06:11:36;;;;;;;8.30;3.83;;;;;;;-143.84;76.25;45127.13;5071277;28;20479;-70
2021/12/03 06:14:03;;;;;;;8.00;2.87;;;;;;;-143.84;76.24;45142.38;5067843;28;20830;-69
2021/12/03 06:16:30;;;;;;;3.63;2.70;;;;;;;-143.84;76.87;45090.97;5066639;28;20463;-70
2021/12/03 06:18:58;;;;;;;8.23;3.30;;;;;;;-143.84;76.85;45129.03;5068432;28;20457;-69
2021/12/03 06:21:25;;;;;;;5.53;2.73;;;;;;;-143.84;76.48;45104.28;5067142;28;20453;-69
2021/12/03 06:23:53;;;;;;;6.50;3.70;;;;;;;-143.84;76.04;45125.22;5067350;28;20447;-69
2021/12/03 06:26:21;;;;;;;3.50;3.00;;;;;;;-143.84;75.46;45110.00;5061058;28;20450;-69
2021/12/03 06:28:48;;;;;;;6.13;2.83;;;;;;;-143.84;76.02;45100.47;5053756;28;20442;-69
2021/12/03 06:31:15;;;;;;;4.67;3.23;;;;;;;-143.84;75.71;45094.78;5064500;28;20889;-69
2021/12/03 06:33:42;;;;;;;8.50;2.90;;;;;;;-143.84;75.43;45121.44;5067095;28;20980;-69
2021/12/03 06:36:10;;;;;;;7.87;3.10;;;;;;;-143.84;75.45;45127.13;5067212;28;20448;-69
2021/12/03 06:38:38;;;;;;;6.83;2.90;;;;;;;-143.84;74.87;45119.53;5059813;28;20519;-69
2021/12/03 06:41:08;;;;;;;3.47;2.97;;;;;;;-143.84;74.27;45108.09;5066830;28;20453;-68
2021/12/03 06:43:35;;;;;;;9.60;4.37;;;;;;;-143.84;73.38;45119.53;5066743;28;20972;-68
2021/12/03 06:46:03;;;;;;;8.37;3.90;;;;;;;-143.84;73.50;45113.81;5066434;28;20451;-68
2021/12/03 06:48:30;;;;;;;5.33;3.23;;;;;;;-143.84;73.44;45123.34;5061152;28;20968;-69
2021/12/03 06:50:57;;;;;;;3.63;3.00;;;;;;;-143.84;73.20;45094.78;5066142;28;20494;-69
2021/12/03 06:53:27;;;;;;;5.63;2.90;;;;;;;-143.84;72.94;45110.00;5064734;28;20517;-69
2021/12/03 06:55:55;;;;;;;7.20;3.47;;;;;;;-143.84;73.01;45106.19;5057612;28;20525;-69
2021/12/03 06:58:24;;;;;;;6.10;3.37;;;;;;;-143.84;72.58;45098.56;5065164;28;20460;-69
2021/12/03 07:00:54;;;;;;;3.20;2.40;;;;;;;-143.84;71.81;45108.09;5068856;28;20455;-69
2021/12/03 07:03:22;;;;;;;4.20;2.63;;;;;;;-143.84;70.93;45106.19;5068919;28;20491;-69
2021/12/03 07:05:49;;;;;;;3.63;2.60;;;;;;;-143.84;70.59;45077.63;5070962;28;21345;-69
2021/12/03 07:08:16;;;;;;;2.83;2.50;;;;;;;-143.84;69.75;45096.66;5073503;28;20456;-69
2021/12/03 07:10:44;;;;;;;4.50;3.03;;;;;;;-143.84;68.72;45102.38;5063715;28;20488;-71
2021/12/03 07:13:11;;;;;;;12.83;2.70;;;;;;;-143.84;68.15;45111.91;5071085;28;21364;-70
2021/12/03 07:15:40;;;;;;;3.37;2.90;;;;;;;-143.84;68.12;45123.34;5071042;28;20494;-69
2021/12/03 07:18:07;;;;;;;8.67;2.73;;;;;;;-143.84;67.24;45113.81;5071071;28;20527;-69
2021/12/03 07:20:35;;;;;;;10.90;3.07;;;;;;;-143.84;66.95;45085.25;5074721;28;20526;-69
2021/12/03 07:23:02;;;;;;;11.87;3.10;;;;;;;-143.84;66.36;45098.56;5070703;28;20455;-69
2021/12/03 07:25:29;;;;;;;5.70;3.03;;;;;;;-143.84;65.64;45087.16;5069949;28;21111;-69
2021/12/03 07:27:57;;;;;;;4.10;2.53;;;;;;;-143.84;65.24;45123.34;5066332;28;20453;-69
2021/12/03 07:30:30;;;;;;;4.37;2.87;;;;;;;-143.84;64.16;45071.91;5069331;28;20492;-69
2021/12/03 07:32:59;;;;;;;6.80;3.87;;;;;;;-143.84;63.58;45110.00;5067838;28;20453;-69
2021/12/03 07:35:26;;;;;;;5.70;3.20;;;;;;;-143.84;64.18;45071.91;5052625;28;20446;-69
2021/12/03 07:37:53;;;;;;;6.50;2.73;;;;;;;-143.84;62.30;45096.66;5067036;28;20452;-69
2021/12/03 07:40:21;;;;;;;6.73;3.53;;;;;;;-143.84;62.21;45068.13;5067363;28;20459;-69
2021/12/03 07:42:48;;;;;;;5.40;4.27;;;;;;;-143.84;61.83;45104.28;5070480;28;20477;-69
2021/12/03 07:45:16;;;;;;;10.00;5.10;;;;;;;-143.84;61.45;45096.66;5070216;28;20446;-69
2021/12/03 07:47:43;;;;;;;4.13;3.70;;;;;;;-143.84;61.04;45083.34;5068728;28;21017;-69
2021/12/03 07:50:13;;;;;;;9.03;3.47;;;;;;;-143.84;60.50;45073.81;5066621;28;20482;-69
2021/12/03 07:52:41;;;;;;;8.43;4.40;;;;;;;-143.84;60.10;45066.22;5069812;28;20452;-69
2021/12/03 07:55:09;;;;;;;6.20;3.90;;;;;;;-143.84;59.96;45079.53;5069369;28;20509;-69
2021/12/03 07:57:37;;;;;;;4.33;3.20;;;;;;;-143.84;59.73;45068.13;5070072;28;20439;-69
2021/12/03 08:00:05;;;;;;;10.90;3.30;;;;;;;-143.84;60.02;45089.06;5066114;28;20459;-69
2021/12/03 08:02:33;;;;;;;5.50;3.47;;;;;;;-143.84;61.03;45085.25;5067728;28;20504;-69
2021/12/03 08:05:00;;;;;;;7.93;4.17;;;;;;;-143.84;61.83;45073.81;5069990;28;21036;-69
2021/12/03 08:07:29;;;;;;;8.77;3.40;;;;;;;-143.84;62.69;45075.72;5071947;28;20454;-69
2021/12/03 08:09:56;;;;;;;15.63;3.13;;;;;;;-143.84;63.00;45102.38;5068593;28;20450;-69
2021/12/03 08:12:23;;;;;;;10.20;3.20;;;;;;;-143.84;62.99;45090.97;5069901;28;20579;-69
2021/12/03 08:14:50;;;;;;;11.37;2.90;;;;;;;-143.84;63.40;45111.91;5069815;28;20440;-69
2021/12/03 08:17:17;;;;;;;10.30;3.63;;;;;;;-143.84;63.48;45102.38;5072087;28;20448;-69
2021/12/03 08:19:44;;;;;;;8.63;3.97;;;;;;;-143.84;64.03;45096.66;5069746;28;20506;-69
2021/12/03 08:22:12;;;;;;;8.60;3.00;;;;;;;-143.84;64.66;45106.19;5069553;28;20961;-69
2021/12/03 08:24:40;;;;;;;15.03;2.90;;;;;;;-143.84;64.90;45085.25;5069067;28;20452;-69
2021/12/03 08:27:08;;;;;;;3.63;2.60;;;;;;;-143.84;65.56;45064.31;5058488;28;20863;-69
2021/12/03 08:29:35;;;;;;;17.13;2.20;;;;;;;-143.84;66.28;45075.72;5045407;28;20469;-69
2021/12/03 08:32:02;;;;;;;13.07;2.60;;;;;;;-143.84;66.81;45123.34;5069150;28;20859;-69
2021/12/03 08:34:30;;;;;;;3.80;1.93;;;;;;;-143.84;66.96;45075.72;5069073;28;20535;-69
2021/12/03 08:36:57;;;;;;;10.17;2.30;;;;;;;-143.84;66.32;45098.56;5069485;28;20447;-69
2021/12/03 08:39:24;;;;;;;7.50;2.90;;;;;;;-143.84;65.52;45083.34;5071742;28;21118;-69
2021/12/03 08:41:53;;;;;;;14.00;2.60;;;;;;;-143.84;64.72;45081.44;5065922;28;20440;-69
2021/12/03 08:44:20;;;;;;;10.00;2.30;;;;;;;-143.84;63.48;45081.44;5065617;28;20462;-69
2021/12/03 08:46:52;;;;;;;18.20;3.00;;;;;;;-143.84;63.42;45077.63;5068678;28;21040;-69
2021/12/03 08:49:28;;;;;;;9.00;3.00;;;;;;;-143.84;62.55;45087.16;5075331;28;20440;-69
2021/12/03 08:52:21;;;;;;;8.37;2.90;;;;;;;-143.84;61.78;45060.50;5068779;28;20541;-70
2021/12/03 08:54:49;;;;;;;7.20;2.43;;;;;;;-143.84;60.68;45092.88;5068322;28;20499;-71
2021/12/03 08:57:19;;;;;;;4.43;2.10;;;;;;;-143.84;59.84;45085.25;5070333;28;20515;-70
2021/12/03 08:59:47;;;;;;;2.87;2.20;;;;;;;-143.84;59.66;45047.16;5078663;28;20460;-71
2021/12/03 09:02:14;;;;;;;6.93;2.43;;;;;;;-143.84;59.07;45056.69;5068615;28;20496;-70
2021/12/03 09:04:41;;;;;;;10.73;2.37;;;;;;;-143.84;59.12;45089.06;5068782;28;20457;-70
2021/12/03 09:07:08;;;;;;;7.70;2.40;;;;;;;-143.84;58.98;45052.88;5068990;28;20520;-70
2021/12/03 09:09:35;;;;;;;5.20;2.00;;;;;;;-143.84;58.21;45070.00;5067506;28;20482;-70
2021/12/03 09:12:03;;;;;;;5.30;2.23;;;;;;;-143.84;57.91;45079.53;5066820;28;21019;-71
2021/12/03 09:14:37;;;;;;;8.10;2.30;;;;;;;-143.84;56.65;45077.63;5066918;28;20447;-71
2021/12/03 09:17:16;;;;;;;8.90;1.93;;;;;;;-143.84;56.71;45071.91;5065141;28;20491;-70
2021/12/03 09:19:51;;;;;;;4.90;2.23;;;;;;;-143.84;56.49;45062.41;5051658;28;21041;-71
2021/12/03 09:22:30;;;;;;;15.40;3.07;;;;;;;-143.84;56.00;45077.63;5069984;28;20456;-70
2021/12/03 09:24:58;;;;;;;9.33;2.80;;;;;;;-143.84;56.45;45075.72;5069020;28;20502;-71
2021/12/03 09:27:25;;;;;;;9.43;3.23;;;;;;;-143.84;56.08;45066.22;5069574;28;20447;-71
2021/12/03 09:29:55;;;;;;;7.13;2.27;;;;;;;-143.84;55.88;45052.88;5069338;28;20436;-70
2021/12/03 09:32:24;;;;;;;5.60;2.40;;;;;;;-143.84;54.28;45075.72;5068950;28;20476;-71
2021/12/03 09:34:52;;;;;;;10.27;3.17;;;;;;;-143.84;53.57;45037.66;5069092;28;20941;-71
2021/12/03 09:37:19;;;;;;;3.67;2.10;;;;;;;-143.84;53.29;45068.13;5069089;28;20444;-70
2021/12/03 09:39:46;;;;;;;8.17;2.43;;;;;;;-143.84;52.09;45071.91;5069279;28;20429;-70
2021/12/03 09:42:15;;;;;;;14.53;3.13;;;;;;;-143.84;52.98;45079.53;5069527;28;20934;-70
2021/12/03 09:44:45;;;;;;;5.93;2.40;;;;;;;-143.84;52.14;45054.78;5068652;28;20439;-69
2021/12/03 09:47:14;;;;;;;7.33;2.30;;;;;;;-143.84;52.44;45052.88;5063111;28;20448;-69
2021/12/03 09:49:43;;;;;;;3.70;1.90;;;;;;;-143.84;51.80;45060.50;5062701;28;20459;-69
2021/12/03 09:52:21;;;;;;;8.30;2.63;;;;;;;-143.84;51.18;45064.31;5068559;28;20989;-69
2021/12/03 09:54:50;;;;;;;15.60;2.37;;;;;;;-143.84;51.58;45024.31;5068127;28;20452;-69
2021/12/03 09:57:26;;;;;;;6.67;3.00;;;;;;;-143.84;50.56;45054.78;5068707;28;20830;-69
2021/12/03 10:00:15;;;;;;;9.90;2.83;;;;;;;-143.84;49.85;45041.44;5064650;28;20456;-70
2021/12/03 10:02:57;;;;;;;4.30;2.60;;;;;;;-143.84;50.62;45050.97;5063219;28;21591;-70
2021/12/03 10:13:50;;;;;;;8.40;2.63;;;;;;;-143.84;49.79;45066.22;5065053;28;21309;-70
2021/12/03 10:19:18;;;;;;;5.53;2.13;;;;;;;-143.84;48.93;45037.66;5055694;28;20475;-70
2021/12/03 10:22:07;;;;;;;7.60;2.30;;;;;;;-143.84;49.46;45106.19;5066451;28;20581;-70
2021/12/03 10:24:47;;;;;;;8.70;2.50;;;;;;;-143.84;49.18;45043.34;5067829;28;20962;-70
2021/12/03 10:30:22;;;;;;;9.47;2.30;;;;;;;-143.84;49.26;45060.50;5058344;28;20514;-70
2021/12/03 10:33:11;;;;;;;5.87;2.00;;;;;;;-143.84;49.37;45043.34;5065315;28;20549;-70
2021/12/03 10:38:36;;;;;;;7.00;2.67;;;;;;;-143.84;48.83;45049.06;5070726;28;20453;-70
2021/12/03 10:41:20;;;;;;;5.17;2.10;;;;;;;-143.84;49.34;45054.78;5066166;28;20472;-70
2021/12/03 10:52:23;;;;;;;6.20;2.13;;;;;;;-143.84;49.06;45022.41;5042788;28;20491;-69
2021/12/03 10:57:57;;;;;;;7.80;2.13;;;;;;;-143.84;49.19;45037.66;5050670;28;20416;-70
2021/12/03 11:06:25;;;;;;;6.60;2.20;;;;;;;-143.84;50.60;45043.34;5050758;28;20499;-70
2021/12/03 13:27:07;;;;;;;5.63;1.90;;;;;;;-143.84;52.73;45064.31;5066889;28;20446;-69
2021/12/03 14:46:04;;;;;;;17.73;4.50;;;;;;;-143.84;56.29;45056.69;5116747;27;20818;-71
2021/12/03 14:51:42;;;;;;;6.60;2.70;;;;;;;-143.84;55.86;45081.44;5134673;27;20458;-71
2021/12/03 14:57:09;;;;;;;10.60;2.87;;;;;;;-143.84;56.03;45081.44;5129284;27;20488;-71
2021/12/03 14:59:39;;;;;;;5.90;2.40;;;;;;;-143.84;55.79;45056.69;5126370;27;21038;-71
2021/12/03 15:02:14;;;;;;;6.93;2.53;;;;;;;-143.84;55.99;45081.44;5135675;27;20453;-71
2021/12/03 15:05:07;;;;;;;6.53;2.77;;;;;;;-143.84;55.63;45079.53;5131551;27;20533;-70
2021/12/03 15:07:42;;;;;;;10.87;4.17;;;;;;;-143.84;55.71;45071.91;5133647;27;20467;-70
2021/12/03 15:10:15;;;;;;;24.80;5.40;;;;;;;-143.84;56.08;45070.00;5130235;27;20445;-71
2021/12/03 15:26:34;;;;;;;13.13;5.40;;;;;;;-143.84;57.24;45087.16;5127438;27;21020;-71
2021/12/03 15:31:56;;;;;;;7.17;3.50;;;;;;;-143.84;58.26;45079.53;5122917;27;20426;-71
2021/12/03 15:34:41;;;;;;;11.10;3.70;;;;;;;-143.84;58.33;45062.41;5122018;27;20459;-71
2021/12/03 15:37:20;;;;;;;13.47;5.07;;;;;;;-143.84;58.59;45071.91;5117292;27;20476;-71
2021/12/03 15:40:15;;;;;;;10.70;4.93;;;;;;;-143.84;58.84;45071.91;5115338;27;20818;-71
2021/12/03 15:56:59;;;;;;;12.87;5.70;;;;;;;-143.84;59.50;45068.13;5118285;27;20499;-71
2021/12/03 16:05:04;;;;;;;9.80;4.83;;;;;;;-143.84;60.65;45075.72;5118735;27;20437;-73
2021/12/03 16:07:55;;;;;;;13.33;4.13;;;;;;;-143.84;62.23;45083.34;5112470;27;20966;-72
2021/12/03 16:10:29;;;;;;;8.60;4.37;;;;;;;-143.84;62.94;45081.44;5118226;27;20496;-73
2021/12/03 16:13:10;;;;;;;20.03;4.37;;;;;;;-143.84;63.66;45075.72;5121171;27;21350;-72
2021/12/03 16:18:43;;;;;;;11.90;5.03;;;;;;;-143.84;64.42;45104.28;5106412;27;20519;-73
2021/12/03 16:21:31;;;;;;;22.33;5.20;;;;;;;-143.84;65.90;45052.88;5111318;27;20845;-74